Time;durP1;ratioP1;P1;durP2;ratioP2;P2;SDS_P1;SDS_P2;PMS_P1;PMS_P2;Temp;Humidity;BMP_temperature;BMP_pressure;BME280_temperature;BME280_humidity;BME280_pressure;Samples;Min_cycle;Max_cycle;Signal;HPM_P1;HPM_P2
2022/09/28 00:01:24;;;;;;;9.20;6.80;;;;;;;12.40;100.00;95923.05;110994;1245;68559;-75
2022/09/28 00:03:59;;;;;;;7.80;6.10;;;;;;;12.40;100.00;95922.45;110368;1245;59679;-75
2022/09/28 00:06:29;;;;;;;10.40;8.30;;;;;;;12.42;100.00;95927.30;110339;1245;59743;-75
2022/09/28 00:09:00;;;;;;;8.80;6.30;;;;;;;12.42;100.00;95927.16;110563;1247;71513;-74
2022/09/28 00:11:28;;;;;;;10.70;7.90;;;;;;;12.42;100.00;95931.13;110470;1245;69605;-75
2022/09/28 00:14:01;;;;;;;9.80;7.90;;;;;;;12.42;100.00;95925.27;110284;1245;68589;-74
2022/09/28 00:16:33;;;;;;;11.10;8.30;;;;;;;12.41;100.00;95926.58;110214;1247;59697;-75
2022/09/28 00:19:03;;;;;;;8.40;6.50;;;;;;;12.40;100.00;95934.14;110114;1247;59733;-74
2022/09/28 00:21:35;;;;;;;9.10;7.00;;;;;;;12.40;100.00;95939.42;110243;1247;71534;-76
2022/09/28 00:24:16;;;;;;;9.10;6.80;;;;;;;12.40;100.00;95943.94;110138;1247;69380;-74
2022/09/28 00:26:48;;;;;;;8.30;6.30;;;;;;;12.39;100.00;95949.13;110192;1247;69295;-74
2022/09/28 00:29:35;;;;;;;9.60;7.30;;;;;;;12.40;100.00;95946.27;110172;1247;59771;-74
2022/09/28 00:32:10;;;;;;;9.40;7.20;;;;;;;12.39;100.00;95941.42;110218;1247;59682;-74
2022/09/28 00:34:41;;;;;;;10.50;7.60;;;;;;;12.37;100.00;95939.20;110177;1247;71355;-75
2022/09/28 00:37:11;;;;;;;6.60;5.00;;;;;;;12.36;100.00;95943.01;110243;1247;69242;-75
2022/09/28 00:39:41;;;;;;;9.30;6.10;;;;;;;12.35;100.00;95944.67;110220;1247;69580;-75
2022/09/28 00:42:19;;;;;;;7.60;5.40;;;;;;;12.35;100.00;95946.09;110221;1247;59707;-75
2022/09/28 00:44:57;;;;;;;10.60;7.70;;;;;;;12.34;100.00;95945.13;110243;1247;59713;-72
2022/09/28 00:47:48;;;;;;;8.90;6.90;;;;;;;12.32;100.00;95947.84;110110;1247;71594;-72
2022/09/28 00:50:28;;;;;;;9.60;7.50;;;;;;;12.28;100.00;95949.77;110325;1245;67954;-74
2022/09/28 00:53:13;;;;;;;8.60;6.50;;;;;;;12.24;100.00;95946.82;110319;1245;69338;-74
2022/09/28 00:55:52;;;;;;;10.00;7.10;;;;;;;12.20;100.00;95942.98;110225;1245;59756;-74
2022/09/28 00:58:29;;;;;;;9.50;6.30;;;;;;;12.18;100.00;95938.37;110140;1247;59745;-74
2022/09/28 01:00:59;;;;;;;10.30;7.10;;;;;;;12.14;100.00;95928.77;110211;1247;71532;-74
2022/09/28 01:03:28;;;;;;;9.00;6.60;;;;;;;12.09;99.96;95923.73;110183;1247;69422;-75
2022/09/28 01:06:01;;;;;;;8.60;6.30;;;;;;;12.03;99.68;95926.13;110444;1247;68526;-74
2022/09/28 01:08:31;;;;;;;8.70;6.70;;;;;;;11.98;99.73;95931.34;110156;1247;59699;-75
2022/09/28 01:11:00;;;;;;;8.40;6.30;;;;;;;11.93;99.61;95931.35;110174;1247;59780;-74
2022/09/28 01:13:30;;;;;;;10.00;7.10;;;;;;;11.87;99.76;95933.69;110297;1245;69755;-73
2022/09/28 01:16:19;;;;;;;9.10;6.40;;;;;;;11.80;100.00;95934.92;110173;1246;68504;-74
2022/09/28 01:18:49;;;;;;;7.30;5.50;;;;;;;11.72;99.87;95933.00;110500;1245;68637;-74
2022/09/28 01:21:23;;;;;;;8.50;5.90;;;;;;;11.67;99.87;95931.44;110355;1244;59718;-74
2022/09/28 01:24:12;;;;;;;9.30;6.30;;;;;;;11.61;100.00;95926.84;110243;1246;59682;-74
2022/09/28 01:26:48;;;;;;;9.50;6.90;;;;;;;11.53;100.00;95924.98;110175;1247;70789;-73
2022/09/28 01:29:28;;;;;;;7.80;6.50;;;;;;;11.46;100.00;95922.19;110122;1247;67560;-74
2022/09/28 01:32:31;;;;;;;9.00;7.10;;;;;;;11.41;100.00;95926.87;110235;1247;69485;-73
2022/09/28 01:35:20;;;;;;;7.70;5.90;;;;;;;11.36;100.00;95931.27;109949;1246;60016;-74
2022/09/28 01:38:28;;;;;;;9.60;6.40;;;;;;;11.30;100.00;95936.27;110183;1247;59754;-75
2022/09/28 01:40:59;;;;;;;7.50;5.30;;;;;;;11.20;100.00;95939.10;110265;1247;71514;-74
2022/09/28 01:43:29;;;;;;;7.20;5.90;;;;;;;11.15;100.00;95943.80;110201;1247;69366;-74
2022/09/28 01:46:18;;;;;;;8.00;5.80;;;;;;;11.09;100.00;95940.16;110032;1246;68461;-74
2022/09/28 01:48:57;;;;;;;;;;;;;;;11.05;100.00;95930.02;110217;1247;59747;-74
2022/09/28 01:51:42;;;;;;;7.90;5.40;;;;;;;11.01;100.00;95926.02;110208;1247;60213;-74
2022/09/28 01:54:25;;;;;;;6.80;5.50;;;;;;;10.96;100.00;95931.54;110221;1247;71567;-74
2022/09/28 01:57:02;;;;;;;8.70;6.00;;;;;;;10.90;100.00;95932.11;110235;1247;68530;-74
2022/09/28 01:59:34;;;;;;;8.80;6.00;;;;;;;10.85;100.00;95932.45;110180;1247;68455;-74
2022/09/28 02:02:11;;;;;;;6.70;4.60;;;;;;;10.78;100.00;95931.92;110162;1247;59724;-75
2022/09/28 02:04:46;;;;;;;7.60;4.30;;;;;;;10.69;100.00;95938.86;110179;1246;59668;-75
2022/09/28 02:07:24;;;;;;;11.70;5.20;;;;;;;10.61;100.00;95943.98;110284;1247;71548;-74
2022/09/28 02:09:59;;;;;;;10.30;4.30;;;;;;;10.55;100.00;95951.16;110296;1246;68559;-75
2022/09/28 02:12:45;;;;;;;6.70;3.90;;;;;;;10.52;100.00;95963.70;110360;1247;69360;-73
2022/09/28 02:15:16;;;;;;;8.90;4.80;;;;;;;10.52;100.00;95965.10;110161;1247;59675;-75
2022/09/28 02:17:46;;;;;;;5.40;3.80;;;;;;;10.53;100.00;95977.02;110612;1245;59719;-74
2022/09/28 02:20:16;;;;;;;5.80;3.70;;;;;;;10.54;100.00;95976.04;110580;1244;71540;-74
2022/09/28 02:22:51;;;;;;;6.30;4.40;;;;;;;10.56;100.00;95977.08;110434;1244;69153;-74
2022/09/28 02:25:44;;;;;;;7.00;4.30;;;;;;;10.58;100.00;95974.61;110182;1245;67569;-75
2022/09/28 02:28:13;;;;;;;5.30;3.70;;;;;;;10.61;100.00;95972.55;110209;1247;59711;-72
2022/09/28 02:30:44;;;;;;;5.50;3.90;;;;;;;10.62;100.00;95981.13;110100;1247;59677;-74
2022/09/28 02:33:27;;;;;;;7.50;5.10;;;;;;;10.63;100.00;95989.08;110202;1247;71491;-75
2022/09/28 02:35:56;;;;;;;8.60;6.00;;;;;;;10.63;100.00;95987.89;110262;1247;68600;-73
2022/09/28 02:38:25;;;;;;;9.00;5.20;;;;;;;10.62;100.00;95990.00;110283;1247;69347;-74
2022/09/28 02:41:03;;;;;;;8.30;5.10;;;;;;;10.61;100.00;95989.11;110188;1245;59719;-73
2022/09/28 02:43:49;;;;;;;6.90;4.40;;;;;;;10.58;100.00;95989.20;110184;1247;59726;-73
2022/09/28 02:46:35;;;;;;;7.10;3.90;;;;;;;10.56;100.00;95994.42;110125;1246;69767;-74
2022/09/28 02:49:19;;;;;;;6.10;3.60;;;;;;;10.55;100.00;96004.36;110264;1247;68615;-74
2022/09/28 02:52:13;;;;;;;5.10;3.20;;;;;;;10.53;100.00;96006.09;110396;1245;69472;-75
2022/09/28 02:55:03;;;;;;;5.60;3.80;;;;;;;10.51;100.00;96002.75;110181;1247;60134;-75
2022/09/28 02:57:47;;;;;;;6.00;3.50;;;;;;;10.50;100.00;96003.95;110171;1247;59679;-73
2022/09/28 03:00:21;;;;;;;4.80;3.50;;;;;;;10.48;100.00;95998.72;110260;1247;71715;-74
2022/09/28 03:02:59;;;;;;;5.20;2.90;;;;;;;10.46;100.00;96003.77;110234;1245;68644;-74
2022/09/28 03:05:53;;;;;;;4.10;2.90;;;;;;;10.43;100.00;96004.35;110232;1245;69401;-75
2022/09/28 03:08:24;;;;;;;4.60;2.80;;;;;;;10.41;100.00;95998.17;110284;1242;59710;-75
2022/09/28 03:11:16;;;;;;;5.10;3.50;;;;;;;10.38;100.00;95995.60;110323;1245;59670;-74
2022/09/28 03:13:46;;;;;;;5.00;2.90;;;;;;;10.35;100.00;95996.34;110480;1245;71435;-76
2022/09/28 03:16:17;;;;;;;4.30;3.00;;;;;;;10.32;100.00;95997.33;110471;1247;67752;-74
2022/09/28 03:18:47;;;;;;;7.20;4.20;;;;;;;10.29;100.00;95997.08;110518;1247;69280;-73
2022/09/28 03:21:16;;;;;;;7.90;4.80;;;;;;;10.26;100.00;95995.77;110324;1245;60109;-75
2022/09/28 03:23:46;;;;;;;6.10;4.40;;;;;;;10.22;100.00;95996.25;110393;1245;59695;-73
2022/09/28 03:26:16;;;;;;;7.50;4.70;;;;;;;10.18;100.00;95995.39;110612;1244;71035;-73
2022/09/28 03:28:45;;;;;;;5.70;3.70;;;;;;;10.15;100.00;95996.91;110524;1247;69396;-74
2022/09/28 03:31:18;;;;;;;5.50;3.70;;;;;;;10.12;100.00;96001.33;110268;1245;69378;-73
2022/09/28 03:33:46;;;;;;;6.20;3.90;;;;;;;10.11;100.00;96000.20;110180;1245;59693;-73
2022/09/28 03:36:14;;;;;;;5.00;3.60;;;;;;;10.09;100.00;95988.02;110286;1244;59671;-73
2022/09/28 03:38:43;;;;;;;6.90;4.40;;;;;;;10.08;100.00;95978.58;110462;1245;72046;-75
2022/09/28 03:41:11;;;;;;;5.90;4.10;;;;;;;10.04;100.00;95974.25;110446;1244;69280;-75
2022/09/28 03:43:40;;;;;;;7.40;4.30;;;;;;;9.99;100.00;95972.62;110415;1245;68587;-74
2022/09/28 03:46:09;;;;;;;6.40;3.90;;;;;;;9.95;100.00;95973.02;110646;1245;59705;-73
2022/09/28 03:48:41;;;;;;;6.50;3.80;;;;;;;9.93;100.00;95978.09;110928;1245;59814;-74
2022/09/28 03:51:13;;;;;;;5.90;3.50;;;;;;;9.90;100.00;95987.57;110514;1244;72471;-76
2022/09/28 03:53:41;;;;;;;5.70;3.10;;;;;;;9.88;100.00;96000.59;110524;1245;69311;-76
2022/09/28 03:56:14;;;;;;;5.00;3.50;;;;;;;9.88;100.00;95997.17;110407;1247;69314;-76
2022/09/28 03:58:42;;;;;;;5.20;3.80;;;;;;;9.86;100.00;95997.14;110497;1245;60098;-74
2022/09/28 04:01:12;;;;;;;5.00;3.30;;;;;;;9.86;100.00;96001.21;110488;1244;59632;-75
2022/09/28 04:03:45;;;;;;;6.80;3.10;;;;;;;9.84;100.00;95996.96;110590;1244;71476;-73
2022/09/28 04:06:14;;;;;;;5.80;3.50;;;;;;;9.82;100.00;96005.86;110521;1245;68593;-74
2022/09/28 04:08:42;;;;;;;5.30;3.40;;;;;;;9.81;100.00;96013.26;110573;1244;68630;-73
2022/09/28 04:11:10;;;;;;;6.50;4.30;;;;;;;9.81;100.00;96014.48;110301;1244;59776;-74
2022/09/28 04:13:38;;;;;;;5.80;3.30;;;;;;;9.83;100.00;96019.01;110379;1245;59670;-74
2022/09/28 04:16:10;;;;;;;5.10;3.40;;;;;;;9.84;100.00;96022.75;110435;1246;71573;-76
2022/09/28 04:18:38;;;;;;;5.60;3.40;;;;;;;9.87;100.00;96027.69;110225;1247;68838;-74
2022/09/28 04:21:20;;;;;;;7.30;4.10;;;;;;;9.90;100.00;96031.05;110393;1245;69278;-74
2022/09/28 04:23:58;;;;;;;7.40;4.50;;;;;;;9.93;100.00;96037.27;110928;1247;59700;-75
2022/09/28 04:26:27;;;;;;;7.80;3.90;;;;;;;9.93;100.00;96036.38;110520;1247;59761;-74
2022/09/28 04:31:51;;;;;;;7.70;4.00;;;;;;;9.97;100.00;96024.86;110467;1245;69237;-73
2022/09/28 04:34:22;;;;;;;7.90;4.70;;;;;;;9.99;100.00;96027.27;110719;1244;69037;-73
2022/09/28 04:36:50;;;;;;;6.80;4.30;;;;;;;10.02;100.00;96028.22;110375;1247;59872;-74
2022/09/28 04:39:19;;;;;;;6.20;3.70;;;;;;;10.05;100.00;96020.96;110578;1244;59653;-72
2022/09/28 04:41:50;;;;;;;5.40;3.30;;;;;;;10.09;100.00;96021.84;110515;1244;70649;-73
2022/09/28 04:44:17;;;;;;;6.20;3.60;;;;;;;10.13;100.00;96023.75;110280;1247;69359;-72
2022/09/28 04:46:47;;;;;;;6.30;3.60;;;;;;;10.16;100.00;96027.96;110479;1245;68544;-73
2022/09/28 04:49:30;;;;;;;5.40;3.30;;;;;;;10.17;100.00;96025.80;110424;1245;59723;-74
2022/09/28 04:52:26;;;;;;;7.70;4.70;;;;;;;10.20;100.00;96032.60;110353;1244;59676;-73
2022/09/28 04:54:54;;;;;;;5.00;3.60;;;;;;;10.24;100.00;96040.30;110368;1244;70730;-73
2022/09/28 04:57:23;;;;;;;4.00;2.90;;;;;;;10.28;100.00;96045.06;110384;1245;69393;-72
2022/09/28 04:59:50;;;;;;;8.70;4.10;;;;;;;10.33;100.00;96047.88;110327;1245;69377;-73
2022/09/28 05:02:19;;;;;;;6.20;4.00;;;;;;;10.41;100.00;96049.13;110360;1245;59780;-73
2022/09/28 05:05:24;;;;;;;6.30;4.50;;;;;;;10.52;100.00;96046.42;110023;1250;59647;-72
2022/09/28 05:08:08;;;;;;;7.80;4.60;;;;;;;10.61;100.00;96046.77;109824;1250;69949;-73
2022/09/28 05:10:39;;;;;;;7.50;4.20;;;;;;;10.71;100.00;96049.11;110055;1245;68869;-74
2022/09/28 05:13:07;;;;;;;7.50;4.40;;;;;;;10.81;100.00;96046.94;110272;1244;68614;-74
2022/09/28 05:15:37;;;;;;;9.50;5.70;;;;;;;10.93;100.00;96050.56;110535;1245;59694;-74
2022/09/28 05:18:05;;;;;;;9.90;6.80;;;;;;;11.08;100.00;96053.27;110284;1245;59760;-75
2022/09/28 05:20:47;;;;;;;9.00;5.70;;;;;;;11.27;100.00;96053.73;110334;1244;72185;-73
2022/09/28 05:23:15;;;;;;;7.70;5.50;;;;;;;11.38;100.00;96050.01;110300;1245;68013;-75
2022/09/28 05:25:44;;;;;;;8.00;5.20;;;;;;;11.46;100.00;96052.38;110236;1245;68565;-76
2022/09/28 05:28:24;;;;;;;6.30;4.80;;;;;;;11.53;100.00;96055.17;110328;1245;59747;-72
2022/09/28 05:31:10;;;;;;;5.50;3.80;;;;;;;11.51;100.00;96054.85;111056;1245;58278;-74
2022/09/28 05:34:05;;;;;;;5.80;4.60;;;;;;;11.52;100.00;96052.27;110487;1243;70524;-75
2022/09/28 05:36:33;;;;;;;7.20;4.00;;;;;;;11.59;100.00;96054.09;110616;1244;69338;-75
2022/09/28 05:39:02;;;;;;;6.60;4.50;;;;;;;11.66;100.00;96057.42;110083;1245;589370;-74
2022/09/28 05:41:30;;;;;;;5.90;4.30;;;;;;;11.73;100.00;96061.21;110294;1245;59687;-75
2022/09/28 05:43:59;;;;;;;4.70;3.80;;;;;;;11.82;100.00;96063.55;110497;1245;59693;-74
2022/09/28 05:46:28;;;;;;;5.30;4.20;;;;;;;11.90;100.00;96065.48;110522;1244;71515;-74
2022/09/28 05:48:59;;;;;;;5.90;4.40;;;;;;;11.97;100.00;96069.88;110478;1245;68757;-74
2022/09/28 05:51:27;;;;;;;6.00;4.40;;;;;;;11.98;100.00;96072.54;110264;1244;68419;-74
2022/09/28 05:53:55;;;;;;;7.10;4.90;;;;;;;11.96;100.00;96080.79;110259;1245;59670;-74
2022/09/28 05:56:24;;;;;;;5.60;4.00;;;;;;;11.92;99.79;96086.23;110539;1244;59757;-76
2022/09/28 05:58:52;;;;;;;6.70;4.60;;;;;;;11.85;99.94;96092.53;110436;1245;71554;-73
2022/09/28 06:01:22;;;;;;;6.10;4.30;;;;;;;11.87;99.73;96092.51;110314;1247;69920;-73
2022/09/28 06:03:49;;;;;;;5.90;4.10;;;;;;;11.91;99.96;96093.69;110194;1245;68602;-74
2022/09/28 06:06:17;;;;;;;7.80;5.10;;;;;;;11.96;99.78;96095.95;110456;1245;59699;-74
2022/09/28 06:08:47;;;;;;;5.30;4.00;;;;;;;12.02;99.59;96098.74;110454;1244;59748;-75
2022/09/28 06:11:33;;;;;;;6.40;4.10;;;;;;;12.09;99.61;96097.98;110520;1244;70686;-71
2022/09/28 06:14:06;;;;;;;7.90;4.60;;;;;;;12.19;99.27;96091.08;110227;1244;69915;-73
2022/09/28 06:16:34;;;;;;;6.10;4.50;;;;;;;12.30;98.92;96091.58;110266;1245;70957;-74
2022/09/28 06:19:08;;;;;;;6.50;4.30;;;;;;;12.45;99.00;96092.66;110252;1244;59789;-74
2022/09/28 06:21:53;;;;;;;6.10;4.10;;;;;;;12.71;98.34;96091.71;110185;1247;59757;-76
2022/09/28 06:24:21;;;;;;;6.40;4.60;;;;;;;12.97;97.51;96093.09;110419;1244;71802;-75
2022/09/28 06:26:48;;;;;;;5.40;4.20;;;;;;;13.14;95.43;96094.98;110308;1246;67730;-76
2022/09/28 06:29:18;;;;;;;5.60;3.70;;;;;;;13.21;93.72;96097.71;110563;1244;68454;-75
2022/09/28 06:31:47;;;;;;;5.00;3.70;;;;;;;13.38;93.10;96100.10;110326;1247;59763;-75
2022/09/28 06:34:14;;;;;;;6.70;4.40;;;;;;;13.56;92.79;96106.28;110262;1245;59807;-77
2022/09/28 06:36:43;;;;;;;7.90;4.20;;;;;;;13.64;92.14;96106.92;110601;1247;71343;-75
2022/09/28 06:39:11;;;;;;;4.30;3.40;;;;;;;13.76;92.48;96103.91;110600;1245;68968;-74
2022/09/28 06:41:40;;;;;;;5.60;3.70;;;;;;;14.02;93.07;96104.15;110419;1244;70011;-72
2022/09/28 06:44:16;;;;;;;4.70;3.40;;;;;;;14.39;89.60;96099.46;110541;1245;59750;-72
2022/09/28 06:46:51;;;;;;;4.10;3.20;;;;;;;14.80;86.78;96099.16;110325;1245;59670;-70
2022/09/28 06:49:54;;;;;;;5.20;3.40;;;;;;;15.42;85.39;96100.23;110606;1245;71423;-74
2022/09/28 06:52:49;;;;;;;4.20;3.20;;;;;;;16.04;83.07;96105.21;110242;1245;69441;-72
2022/09/28 06:55:41;;;;;;;4.30;3.50;;;;;;;16.56;81.99;96114.96;110538;1244;68561;-72
2022/09/28 06:58:11;;;;;;;5.00;3.50;;;;;;;17.00;76.55;96112.30;110154;1245;59742;-72
2022/09/28 07:00:40;;;;;;;4.30;3.10;;;;;;;16.92;75.08;96110.88;110654;1244;59639;-74
2022/09/28 07:03:11;;;;;;;4.80;3.20;;;;;;;16.86;75.39;96115.06;110378;1244;71516;-73
2022/09/28 07:05:59;;;;;;;5.20;3.20;;;;;;;16.66;75.06;96119.23;110293;1244;69370;-72
2022/09/28 07:09:01;;;;;;;4.20;3.40;;;;;;;16.43;74.00;96116.77;110315;1244;69470;-73
2022/09/28 07:12:12;;;;;;;5.70;3.30;;;;;;;16.37;75.41;96119.63;110599;1244;59691;-73
2022/09/28 07:15:00;;;;;;;3.90;3.30;;;;;;;16.84;75.56;96121.69;110353;1245;59736;-71
2022/09/28 07:17:28;;;;;;;4.10;3.30;;;;;;;17.31;73.31;96130.89;110394;1244;71540;-73
2022/09/28 07:19:59;;;;;;;4.00;3.60;;;;;;;17.34;71.82;96132.02;110331;1243;69323;-71
2022/09/28 07:22:43;;;;;;;4.40;3.70;;;;;;;16.86;71.65;96137.80;110278;1245;68543;-72
2022/09/28 07:25:17;;;;;;;4.40;4.00;;;;;;;16.31;73.57;96145.05;110229;1245;59726;-73
2022/09/28 07:28:01;;;;;;;4.90;4.40;;;;;;;16.04;76.16;96148.61;110484;1245;59685;-73
2022/09/28 07:30:47;;;;;;;6.00;3.80;;;;;;;15.85;76.75;96150.50;110365;1245;71477;-72
2022/09/28 07:33:38;;;;;;;7.20;4.50;;;;;;;15.46;76.34;96154.51;110390;1244;67929;-73
2022/09/28 07:36:33;;;;;;;6.40;4.70;;;;;;;14.94;79.18;96163.98;110405;1245;68441;-71
2022/09/28 07:39:02;;;;;;;5.30;4.50;;;;;;;14.95;79.27;96159.06;110455;1245;60017;-72
2022/09/28 07:41:32;;;;;;;6.70;5.30;;;;;;;15.01;79.20;96156.31;110418;1245;59743;-73
2022/09/28 07:44:05;;;;;;;5.60;5.00;;;;;;;14.83;80.75;96157.20;110673;1245;71523;-71
2022/09/28 07:46:36;;;;;;;6.30;5.00;;;;;;;15.23;80.84;96156.49;110557;1245;68774;-73
2022/09/28 07:49:22;;;;;;;6.70;5.70;;;;;;;15.76;78.55;96151.77;110577;1244;69318;-73
2022/09/28 07:51:59;;;;;;;6.20;5.00;;;;;;;16.15;75.98;96152.07;110458;1244;59075;-74
2022/09/28 07:54:26;;;;;;;5.70;4.40;;;;;;;16.20;75.98;96151.99;110425;1244;59684;-74
2022/09/28 07:57:23;;;;;;;6.70;5.90;;;;;;;16.41;75.28;96162.78;110516;1244;71529;-75
2022/09/28 08:00:09;;;;;;;6.00;5.00;;;;;;;16.43;73.94;96163.58;110276;1244;69694;-73
2022/09/28 08:02:45;;;;;;;5.20;4.30;;;;;;;16.42;74.61;96164.58;110498;1244;68573;-75
2022/09/28 08:05:16;;;;;;;6.60;5.30;;;;;;;16.75;73.68;96169.48;110540;1245;59698;-73
2022/09/28 08:07:44;;;;;;;6.50;5.00;;;;;;;16.75;73.17;96173.76;110418;1245;59735;-73
2022/09/28 08:10:12;;;;;;;5.30;4.30;;;;;;;16.78;73.28;96178.45;110416;1244;71583;-72
2022/09/28 08:13:02;;;;;;;4.60;4.10;;;;;;;17.10;72.33;96178.35;110188;1245;68567;-73
2022/09/28 08:15:37;;;;;;;4.00;3.40;;;;;;;17.24;71.29;96177.60;110306;1245;69572;-73
2022/09/28 08:18:28;;;;;;;4.60;3.40;;;;;;;17.44;71.02;96185.42;110472;1244;59769;-73
2022/09/28 08:23:42;;;;;;;4.20;3.10;;;;;;;17.65;70.25;96178.36;110338;1245;70864;-71
2022/09/28 08:26:10;;;;;;;3.80;3.30;;;;;;;17.62;68.21;96175.52;110222;1245;69345;-73
2022/09/28 08:28:43;;;;;;;3.90;3.50;;;;;;;17.44;68.54;96181.52;110763;1244;69378;-73
2022/09/28 08:31:40;;;;;;;4.00;3.40;;;;;;;17.38;68.88;96185.86;110237;1244;59687;-73
2022/09/28 08:34:13;;;;;;;3.60;2.80;;;;;;;17.55;68.71;96187.67;110385;1245;59735;-72
2022/09/28 08:36:58;;;;;;;4.30;3.50;;;;;;;17.32;67.50;96182.70;110548;1244;70685;-74
2022/09/28 08:39:41;;;;;;;3.70;2.70;;;;;;;17.53;67.67;96182.11;110442;1245;69314;-74
2022/09/28 08:42:34;;;;;;;4.10;3.30;;;;;;;17.65;67.15;96175.52;110334;1243;69303;-73
2022/09/28 08:45:24;;;;;;;3.20;2.50;;;;;;;17.78;67.33;96176.45;110427;1244;59688;-74
2022/09/28 08:48:59;;;;;;;3.00;2.70;;;;;;;17.97;66.53;96180.63;110512;1245;59640;-73
2022/09/28 08:52:17;;;;;;;3.80;3.00;;;;;;;18.51;63.54;96179.58;109789;1252;71447;-71
2022/09/28 08:55:03;;;;;;;3.30;2.50;;;;;;;18.86;64.50;96181.42;109661;1250;69428;-73
2022/09/28 08:57:55;;;;;;;1.60;1.50;;;;;;;19.34;57.46;96177.27;110557;1244;70103;-73
2022/09/28 09:00:38;;;;;;;2.00;1.60;;;;;;;19.61;56.43;96181.05;110396;1245;59685;-73
2022/09/28 09:03:13;;;;;;;3.40;1.50;;;;;;;19.60;55.04;96181.48;110422;1244;59655;-71
2022/09/28 09:06:21;;;;;;;2.50;1.50;;;;;;;19.53;54.87;96182.60;110358;1243;70674;-73
2022/09/28 09:09:04;;;;;;;1.80;1.30;;;;;;;19.22;53.81;96186.35;110423;1243;69941;-73
2022/09/28 09:12:13;;;;;;;2.70;1.80;;;;;;;18.97;53.78;96181.98;110351;1245;69862;-73
2022/09/28 09:14:52;;;;;;;2.50;1.80;;;;;;;18.70;54.68;96176.13;110233;1247;59763;-72
2022/09/28 09:17:42;;;;;;;2.00;1.60;;;;;;;18.61;55.55;96171.64;110490;1244;59688;-74
2022/09/28 09:20:44;;;;;;;2.50;2.10;;;;;;;18.75;55.60;96165.84;110418;1244;71594;-73
2022/09/28 09:23:16;;;;;;;2.30;1.90;;;;;;;19.20;56.11;96162.20;110555;1244;69387;-74
2022/09/28 09:25:53;;;;;;;2.20;1.80;;;;;;;19.53;55.18;96166.38;110518;1244;69466;-72
2022/09/28 09:28:43;;;;;;;2.20;1.80;;;;;;;19.90;53.27;96177.61;110327;1245;59755;-72
2022/09/28 09:31:16;;;;;;;2.40;1.60;;;;;;;20.19;53.86;96184.27;110360;1244;59665;-72
2022/09/28 09:34:19;;;;;;;3.00;2.20;;;;;;;20.28;52.21;96184.48;110359;1245;71020;-72
2022/09/28 09:37:15;;;;;;;3.00;1.80;;;;;;;20.20;52.52;96186.29;110442;1243;68675;-75
2022/09/28 09:39:50;;;;;;;2.40;1.70;;;;;;;20.32;52.58;96184.44;110321;1245;69459;-71
2022/09/28 09:42:57;;;;;;;4.10;1.90;;;;;;;20.37;52.44;96182.85;110482;1244;59644;-72
2022/09/28 09:45:53;;;;;;;2.10;1.60;;;;;;;20.53;52.06;96184.58;110464;1244;59676;-73
2022/09/28 09:49:02;;;;;;;2.70;2.00;;;;;;;20.58;52.04;96190.46;110392;1245;71432;-73
2022/09/28 09:51:58;;;;;;;2.60;2.00;;;;;;;20.42;51.60;96198.58;110602;1245;69249;-74
2022/09/28 09:54:49;;;;;;;3.10;1.90;;;;;;;20.34;52.71;96199.70;110977;1245;69540;-73
2022/09/28 09:57:40;;;;;;;3.70;2.40;;;;;;;19.98;52.70;96201.96;110437;1244;59610;-73
2022/09/28 10:00:26;;;;;;;3.40;2.00;;;;;;;19.92;53.57;96197.41;110467;1244;59633;-71
2022/09/28 10:03:02;;;;;;;2.60;2.10;;;;;;;19.72;53.13;96198.47;110445;1244;71368;-72
2022/09/28 10:05:36;;;;;;;3.30;2.30;;;;;;;19.44;52.62;96199.84;110356;1245;67460;-73
2022/09/28 10:08:14;;;;;;;3.80;1.80;;;;;;;19.26;53.41;96202.66;110351;1244;68905;-73
2022/09/28 10:10:54;;;;;;;2.40;1.50;;;;;;;19.19;54.12;96203.29;110295;1245;60153;-73
2022/09/28 10:13:22;;;;;;;1.70;1.40;;;;;;;19.30;53.94;96203.77;110500;1245;59682;-73
2022/09/28 10:15:50;;;;;;;1.70;1.20;;;;;;;19.24;52.31;96204.78;110379;1245;70760;-72
2022/09/28 10:18:22;;;;;;;1.90;1.30;;;;;;;19.14;52.58;96204.68;110483;1244;68674;-74
2022/09/28 10:21:16;;;;;;;1.90;1.30;;;;;;;18.95;52.50;96210.05;110398;1244;69401;-71
2022/09/28 10:24:01;;;;;;;2.60;1.30;;;;;;;18.65;52.73;96213.22;110576;1244;59679;-73
2022/09/28 10:26:38;;;;;;;2.10;1.10;;;;;;;18.38;53.73;96217.08;110406;1245;59721;-72
2022/09/28 10:29:16;;;;;;;2.50;1.40;;;;;;;18.11;54.11;96215.35;110529;1244;69717;-72
2022/09/28 10:31:49;;;;;;;1.70;1.00;;;;;;;17.90;55.01;96222.19;110618;1244;68662;-72
2022/09/28 10:34:29;;;;;;;1.50;1.00;;;;;;;17.73;55.89;96216.89;110466;1244;69345;-72
2022/09/28 10:37:05;;;;;;;2.10;1.40;;;;;;;17.63;56.44;96210.48;110350;1247;59727;-74
2022/09/28 10:39:52;;;;;;;3.00;1.40;;;;;;;17.48;56.08;96213.91;110573;1244;59691;-73
2022/09/28 10:42:26;;;;;;;1.80;1.20;;;;;;;17.47;56.90;96219.66;110623;1244;70638;-72
2022/09/28 10:45:23;;;;;;;1.20;1.10;;;;;;;17.48;57.32;96215.55;110172;1245;69265;-74
2022/09/28 10:47:50;;;;;;;1.10;1.00;;;;;;;17.64;56.97;96215.06;110356;1245;68498;-71
2022/09/28 10:50:26;;;;;;;1.40;1.20;;;;;;;17.88;56.52;96211.91;110325;1247;59608;-72
2022/09/28 10:53:19;;;;;;;1.20;1.10;;;;;;;18.27;56.54;96216.14;110399;1244;59684;-72
2022/09/28 10:56:21;;;;;;;1.30;1.10;;;;;;;18.66;55.62;96217.30;110352;1245;72124;-74
2022/09/28 10:58:52;;;;;;;1.60;1.20;;;;;;;18.91;54.90;96212.73;110385;1245;69474;-72
2022/09/28 11:01:31;;;;;;;1.60;1.40;;;;;;;19.16;53.30;96209.58;110292;1245;69587;-72
2022/09/28 11:04:06;;;;;;;1.90;1.20;;;;;;;19.58;54.03;96204.52;110240;1245;59664;-72
2022/09/28 11:06:39;;;;;;;2.00;1.20;;;;;;;20.27;52.77;96200.27;110326;1247;59605;-73
2022/09/28 11:09:26;;;;;;;1.90;1.20;;;;;;;20.99;49.67;96196.31;110352;1245;72100;-72
2022/09/28 11:12:02;;;;;;;1.40;1.20;;;;;;;22.01;47.77;96190.38;110463;1245;68577;-72
2022/09/28 11:14:36;;;;;;;2.40;1.30;;;;;;;22.99;45.12;96189.39;110245;1245;70974;-74
2022/09/28 11:17:31;;;;;;;1.90;1.00;;;;;;;23.85;43.97;96191.42;110466;1242;59760;-74
2022/09/28 11:20:18;;;;;;;1.60;1.20;;;;;;;24.38;42.70;96176.75;110374;1246;59627;-72
2022/09/28 11:22:57;;;;;;;1.50;1.10;;;;;;;24.23;40.85;96177.31;110397;1245;71588;-72
2022/09/28 11:25:28;;;;;;;1.40;1.10;;;;;;;24.97;41.71;96184.02;110386;1244;69977;-73
2022/09/28 11:28:00;;;;;;;;;;;;;;;25.53;39.00;96187.42;110443;1245;69361;-73
2022/09/28 11:30:50;;;;;;;1.50;0.90;;;;;;;25.69;38.51;96187.45;110540;1244;59747;-73
2022/09/28 11:33:28;;;;;;;1.00;0.80;;;;;;;26.03;36.66;96182.15;110733;1245;59738;-73
2022/09/28 11:36:18;;;;;;;1.30;1.00;;;;;;;25.99;36.66;96187.42;110267;1247;71549;-73
2022/09/28 11:39:01;;;;;;;1.70;1.10;;;;;;;25.68;37.46;96187.95;110437;1245;68520;-74
2022/09/28 11:41:53;;;;;;;1.40;1.00;;;;;;;25.07;39.06;96185.39;110525;1245;69396;-75
2022/09/28 11:44:27;;;;;;;0.90;0.80;;;;;;;24.76;38.82;96186.58;110315;1245;59700;-76
2022/09/28 11:47:27;;;;;;;1.60;1.00;;;;;;;24.24;39.88;96185.45;110423;1244;59672;-74
2022/09/28 11:50:28;;;;;;;1.30;1.00;;;;;;;23.80;40.37;96187.64;110457;1245;70711;-73
2022/09/28 11:53:21;;;;;;;2.00;1.20;;;;;;;24.24;39.91;96178.14;110384;1244;68470;-73
2022/09/28 11:56:13;;;;;;;;;;;;;;;25.04;38.90;96181.30;110468;1244;69219;-75
2022/09/28 11:58:46;;;;;;;1.20;1.00;;;;;;;25.88;37.53;96178.09;110418;1245;59692;-75
2022/09/28 12:01:48;;;;;;;1.40;0.80;;;;;;;26.50;36.78;96186.06;110505;1245;59627;-74
2022/09/28 12:04:45;;;;;;;1.20;0.90;;;;;;;27.22;35.47;96183.75;110356;1248;71489;-73
2022/09/28 12:07:34;;;;;;;1.40;0.90;;;;;;;27.32;34.33;96191.48;110232;1247;69367;-75
2022/09/28 12:10:13;;;;;;;1.10;0.70;;;;;;;27.13;33.59;96191.66;110281;1247;69400;-75
2022/09/28 12:13:39;;;;;;;1.30;0.90;;;;;;;26.96;34.71;96191.66;110212;1247;59689;-74
2022/09/28 12:16:31;;;;;;;1.10;0.80;;;;;;;26.32;34.73;96183.55;109831;1247;59729;-72
2022/09/28 12:19:31;;;;;;;1.20;0.70;;;;;;;26.44;33.92;96185.98;110206;1247;70695;-75
2022/09/28 12:22:32;;;;;;;1.40;0.80;;;;;;;25.77;34.17;96187.13;110223;1248;69266;-73